createdAt,value
2017-09-03T00:01:24.686Z,10.10
2017-09-03T00:03:52.957Z,10.10
2017-09-03T00:06:21.223Z,10.10
2017-09-03T00:08:49.519Z,10.00
2017-09-03T00:11:17.763Z,10.00
2017-09-03T00:13:46.020Z,9.90
2017-09-03T00:16:15.145Z,9.90
2017-09-03T00:18:43.386Z,9.90
2017-09-03T00:21:11.667Z,9.90
2017-09-03T00:23:39.938Z,9.90
2017-09-03T00:26:08.171Z,9.90
2017-09-03T00:28:36.439Z,9.90
2017-09-03T00:31:04.838Z,9.80
2017-09-03T00:33:33.102Z,9.80
2017-09-03T00:36:01.339Z,9.70
2017-09-03T00:38:29.679Z,9.70
2017-09-03T00:40:57.973Z,9.60
2017-09-03T00:43:26.231Z,9.70
2017-09-03T00:45:54.487Z,9.70
2017-09-03T00:48:23.939Z,9.70
2017-09-03T00:50:53.421Z,9.60
2017-09-03T00:53:21.652Z,9.60
2017-09-03T00:55:50.406Z,9.60
2017-09-03T00:58:18.685Z,9.60
2017-09-03T01:00:46.901Z,9.70
2017-09-03T01:03:15.154Z,9.70
2017-09-03T01:05:44.046Z,9.70
2017-09-03T01:08:12.311Z,9.70
2017-09-03T01:10:40.534Z,9.60
2017-09-03T01:13:09.355Z,9.60
2017-09-03T01:15:37.654Z,9.50
2017-09-03T01:18:05.894Z,9.50
2017-09-03T01:20:34.209Z,9.50
2017-09-03T01:23:02.445Z,9.50
2017-09-03T01:25:30.684Z,9.50
2017-09-03T01:27:58.946Z,9.60
2017-09-03T01:30:27.220Z,9.60
2017-09-03T01:32:55.454Z,9.50
2017-09-03T01:35:23.694Z,9.50
2017-09-03T01:37:52.004Z,9.50
2017-09-03T01:40:20.261Z,9.50
2017-09-03T01:42:48.557Z,9.50
2017-09-03T01:45:16.818Z,9.50
2017-09-03T01:47:45.290Z,9.50
2017-09-03T01:50:13.578Z,9.50
2017-09-03T01:52:41.839Z,9.50
2017-09-03T01:55:10.091Z,9.40
2017-09-03T01:57:38.351Z,9.50
2017-09-03T02:00:06.597Z,9.60
2017-09-03T02:02:34.871Z,9.70
2017-09-03T02:05:03.098Z,9.70
2017-09-03T02:07:31.358Z,9.70
2017-09-03T02:09:59.637Z,9.80
2017-09-03T02:12:27.864Z,9.90
2017-09-03T02:14:56.206Z,9.90
2017-09-03T02:17:24.445Z,9.90
2017-09-03T02:19:52.702Z,9.90
2017-09-03T02:22:20.981Z,10.00
2017-09-03T02:24:49.249Z,9.90
2017-09-03T02:27:17.483Z,10.00
2017-09-03T02:29:45.750Z,9.90
2017-09-03T02:32:14.865Z,10.00
2017-09-03T02:34:43.117Z,10.00
2017-09-03T02:37:11.404Z,10.00
2017-09-03T02:39:39.665Z,10.00
2017-09-03T02:42:07.909Z,10.00
2017-09-03T02:44:36.177Z,10.00
2017-09-03T02:47:05.014Z,10.00
2017-09-03T02:49:33.274Z,10.00
2017-09-03T02:52:01.543Z,9.90
2017-09-03T02:54:29.789Z,10.00
2017-09-03T02:56:58.046Z,10.10
2017-09-03T02:59:26.412Z,10.10
2017-09-03T03:01:54.666Z,10.20
2017-09-03T03:04:23.158Z,10.30
2017-09-03T03:06:51.506Z,10.30
2017-09-03T03:09:19.763Z,10.30
2017-09-03T03:11:48.004Z,10.30
2017-09-03T03:14:16.254Z,10.30
2017-09-03T03:16:44.493Z,10.20
2017-09-03T03:19:12.757Z,10.20
2017-09-03T03:21:42.388Z,10.10
2017-09-03T03:24:11.397Z,10.20
2017-09-03T03:26:39.638Z,10.20
2017-09-03T03:29:07.935Z,10.10
2017-09-03T03:31:36.155Z,10.20
2017-09-03T03:34:04.422Z,10.20
2017-09-03T03:36:32.674Z,10.10
2017-09-03T03:39:00.930Z,10.00
2017-09-03T03:41:29.195Z,10.10
2017-09-03T03:43:57.477Z,10.10
2017-09-03T03:46:25.749Z,10.10
2017-09-03T03:48:54.017Z,10.00
2017-09-03T03:51:22.275Z,10.00
2017-09-03T03:53:50.517Z,10.00
2017-09-03T03:56:18.769Z,10.00
2017-09-03T03:58:47.005Z,10.00
2017-09-03T04:01:15.260Z,9.90
2017-09-03T04:03:43.491Z,10.00
2017-09-03T04:06:11.745Z,10.10
2017-09-03T04:08:40.002Z,10.10
2017-09-03T04:11:08.256Z,10.00
2017-09-03T04:13:36.533Z,9.90
2017-09-03T04:16:04.762Z,9.90
2017-09-03T04:18:33.007Z,9.80
2017-09-03T04:21:01.286Z,9.80
2017-09-03T04:23:29.506Z,9.80
2017-09-03T04:25:57.783Z,9.80
2017-09-03T04:28:26.029Z,9.80
2017-09-03T04:30:54.296Z,9.80
2017-09-03T04:33:22.557Z,9.90
2017-09-03T04:35:50.825Z,9.90
2017-09-03T04:38:19.061Z,9.90
2017-09-03T04:40:47.318Z,9.90
2017-09-03T04:43:15.542Z,9.80
2017-09-03T04:45:44.345Z,9.80
2017-09-03T04:48:13.535Z,9.90
2017-09-03T04:50:41.776Z,9.90
2017-09-03T04:53:10.039Z,9.80
2017-09-03T04:55:38.318Z,9.90
2017-09-03T04:58:06.562Z,9.90
2017-09-03T05:00:34.799Z,9.90
2017-09-03T05:03:03.057Z,9.90
2017-09-03T05:05:31.300Z,9.80
2017-09-03T05:07:59.554Z,9.80
2017-09-03T05:10:27.797Z,9.80
2017-09-03T05:12:56.053Z,9.80
2017-09-03T05:15:24.315Z,9.80
2017-09-03T05:17:52.550Z,9.80
2017-09-03T05:20:20.814Z,9.80
2017-09-03T05:22:49.056Z,9.90
2017-09-03T05:25:17.285Z,9.90
2017-09-03T05:27:45.563Z,10.00
2017-09-03T05:30:13.797Z,10.00
2017-09-03T05:32:42.777Z,9.90
2017-09-03T05:35:11.047Z,9.90
2017-09-03T05:37:39.332Z,9.90
2017-09-03T05:40:07.586Z,9.90
2017-09-03T05:42:35.846Z,10.00
2017-09-03T05:45:04.106Z,10.00
2017-09-03T05:47:32.341Z,10.00
2017-09-03T05:50:00.609Z,10.20
2017-09-03T05:52:28.865Z,10.20
2017-09-03T05:54:57.097Z,10.30
2017-09-03T05:57:25.380Z,10.30
2017-09-03T05:59:53.598Z,10.40
2017-09-03T06:02:21.859Z,10.30
2017-09-03T06:04:50.133Z,10.30
2017-09-03T06:07:18.350Z,10.40
2017-09-03T06:09:46.610Z,10.40
2017-09-03T06:12:14.859Z,10.40
2017-09-03T06:14:44.034Z,10.40
2017-09-03T06:17:12.264Z,10.40
2017-09-03T06:19:40.534Z,10.50
2017-09-03T06:22:08.805Z,10.50
2017-09-03T06:24:37.031Z,10.50
2017-09-03T06:27:05.850Z,10.50
2017-09-03T06:29:34.102Z,10.60
2017-09-03T06:32:02.396Z,10.70
2017-09-03T06:34:30.690Z,10.90
2017-09-03T06:36:58.933Z,11.00
2017-09-03T06:39:27.190Z,11.20
2017-09-03T06:41:55.439Z,11.20
2017-09-03T06:44:23.698Z,11.30
2017-09-03T06:46:51.969Z,11.30
2017-09-03T06:49:20.254Z,11.40
2017-09-03T06:51:48.487Z,11.40
2017-09-03T06:54:16.851Z,11.40
2017-09-03T06:56:45.090Z,11.50
2017-09-03T06:59:13.322Z,11.40
2017-09-03T07:01:41.683Z,11.40
2017-09-03T07:04:09.960Z,11.50
2017-09-03T07:06:38.197Z,11.60
2017-09-03T07:09:06.434Z,11.60
2017-09-03T07:11:34.692Z,11.70
2017-09-03T07:14:02.936Z,11.60
2017-09-03T07:16:31.204Z,11.60
2017-09-03T07:18:59.430Z,11.70
2017-09-03T07:21:27.807Z,11.70
2017-09-03T07:23:56.043Z,11.70
2017-09-03T07:26:24.296Z,11.70
2017-09-03T07:28:52.542Z,11.70
2017-09-03T07:31:20.832Z,11.80
2017-09-03T07:33:49.065Z,11.70
2017-09-03T07:36:17.334Z,11.70
2017-09-03T07:38:45.586Z,11.70
2017-09-03T07:41:13.830Z,11.90
2017-09-03T07:43:42.080Z,11.90
2017-09-03T07:46:10.603Z,12.10
2017-09-03T07:48:38.856Z,12.10
2017-09-03T07:51:07.094Z,12.30
2017-09-03T07:53:35.379Z,12.30
2017-09-03T07:56:03.778Z,12.40
2017-09-03T07:58:32.034Z,12.50
2017-09-03T08:01:00.292Z,12.70
2017-09-03T08:03:28.537Z,12.90
2017-09-03T08:05:56.805Z,13.10
2017-09-03T08:08:25.026Z,13.20
2017-09-03T08:10:53.284Z,13.30
2017-09-03T08:13:21.522Z,13.50
2017-09-03T08:15:49.770Z,13.50
2017-09-03T08:18:18.046Z,13.70
2017-09-03T08:20:46.293Z,13.80
2017-09-03T08:23:14.558Z,13.80
2017-09-03T08:25:42.827Z,13.90
2017-09-03T08:28:11.085Z,14.10
2017-09-03T08:30:39.512Z,14.30
2017-09-03T08:33:07.845Z,14.40
2017-09-03T08:35:36.097Z,14.50
2017-09-03T08:38:04.375Z,14.70
2017-09-03T08:40:34.299Z,14.70
2017-09-03T08:43:02.572Z,14.70
2017-09-03T08:45:31.368Z,14.90
2017-09-03T08:47:59.640Z,14.90
2017-09-03T08:50:27.939Z,15.10
2017-09-03T08:52:56.214Z,15.20
2017-09-03T08:55:24.486Z,15.30
2017-09-03T08:57:52.746Z,15.40
2017-09-03T09:00:21.026Z,15.40
2017-09-03T09:02:49.291Z,15.60
2017-09-03T09:05:17.574Z,15.70
2017-09-03T09:07:45.842Z,15.80
2017-09-03T09:10:14.139Z,15.90
2017-09-03T09:12:42.432Z,16.00
2017-09-03T09:15:10.733Z,16.00
2017-09-03T09:17:38.990Z,16.10
2017-09-03T09:20:07.268Z,16.20
2017-09-03T09:22:35.612Z,16.40
2017-09-03T09:25:03.989Z,16.50
2017-09-03T09:27:32.246Z,16.60
2017-09-03T09:30:00.508Z,16.70
2017-09-03T09:32:28.857Z,16.80
2017-09-03T09:34:57.215Z,16.90
2017-09-03T09:37:25.438Z,17.00
2017-09-03T09:39:53.724Z,17.20
2017-09-03T09:42:22.187Z,17.00
2017-09-03T09:44:50.447Z,17.10
2017-09-03T09:47:18.842Z,17.20
2017-09-03T09:49:47.977Z,17.10
2017-09-03T09:52:16.305Z,17.00
2017-09-03T09:54:44.566Z,17.00
2017-09-03T09:57:12.842Z,17.10
2017-09-03T09:59:41.163Z,17.10
2017-09-03T10:02:10.072Z,17.20
2017-09-03T10:04:38.365Z,17.20
2017-09-03T10:07:06.611Z,17.20
2017-09-03T10:09:34.881Z,17.40
2017-09-03T10:12:03.152Z,17.60
2017-09-03T10:14:32.453Z,17.80
2017-09-03T10:17:00.722Z,18.10
2017-09-03T10:19:28.994Z,18.20
2017-09-03T10:21:58.059Z,18.40
2017-09-03T10:24:26.284Z,18.60
2017-09-03T10:26:54.517Z,18.70
2017-09-03T10:29:22.778Z,18.80
2017-09-03T10:31:51.019Z,18.70
2017-09-03T10:34:19.288Z,18.60
2017-09-03T10:36:47.546Z,18.20
2017-09-03T10:39:15.794Z,18.40
2017-09-03T10:41:44.116Z,18.50
2017-09-03T10:44:12.354Z,18.80
2017-09-03T10:46:40.637Z,18.90
2017-09-03T10:49:08.923Z,19.10
2017-09-03T10:51:37.220Z,19.10
2017-09-03T10:54:05.468Z,19.10
2017-09-03T10:56:33.754Z,19.00
2017-09-03T10:59:02.016Z,19.00
2017-09-03T11:01:30.313Z,19.00
2017-09-03T11:03:58.555Z,19.00
2017-09-03T11:06:26.873Z,19.00
2017-09-03T11:08:55.133Z,19.00
2017-09-03T11:11:23.405Z,19.00
2017-09-03T11:13:51.665Z,19.00
2017-09-03T11:16:19.914Z,18.80
2017-09-03T11:18:48.224Z,18.80
2017-09-03T11:21:16.448Z,18.70
2017-09-03T11:23:44.715Z,18.80
2017-09-03T11:26:12.966Z,18.80
2017-09-03T11:28:41.282Z,18.80
2017-09-03T11:31:09.792Z,18.70
2017-09-03T11:33:38.063Z,18.70
2017-09-03T11:36:06.320Z,18.70
2017-09-03T11:38:34.571Z,18.70
2017-09-03T11:41:02.838Z,18.90
2017-09-03T11:43:31.694Z,18.90
2017-09-03T11:45:59.961Z,19.00
2017-09-03T11:48:29.228Z,19.10
2017-09-03T11:50:57.465Z,19.20
2017-09-03T11:53:25.891Z,19.40
2017-09-03T11:55:54.140Z,19.60
2017-09-03T11:58:22.426Z,19.60
2017-09-03T12:00:50.661Z,19.80
2017-09-03T12:03:18.926Z,19.80
2017-09-03T12:05:47.195Z,19.90
2017-09-03T12:08:15.435Z,19.80
2017-09-03T12:10:44.016Z,19.70
2017-09-03T12:13:12.279Z,19.60
2017-09-03T12:15:41.444Z,19.60
2017-09-03T12:18:09.716Z,19.60
2017-09-03T12:20:38.074Z,19.50
2017-09-03T12:23:06.317Z,19.30
2017-09-03T12:25:35.644Z,19.30
2017-09-03T12:28:03.855Z,19.50
2017-09-03T12:30:32.163Z,19.50
2017-09-03T12:33:00.422Z,19.70
2017-09-03T12:35:28.729Z,19.60
2017-09-03T12:37:57.011Z,19.90
2017-09-03T12:40:25.257Z,20.00
2017-09-03T12:42:53.543Z,20.20
2017-09-03T12:45:21.806Z,20.40
2017-09-03T12:47:50.119Z,20.60
2017-09-03T12:50:18.403Z,20.30
2017-09-03T12:52:46.681Z,20.40
2017-09-03T12:55:14.920Z,20.30
2017-09-03T12:57:43.197Z,20.20
2017-09-03T13:00:11.429Z,20.10
2017-09-03T13:02:39.683Z,19.90
2017-09-03T13:05:07.992Z,19.90
2017-09-03T13:07:36.273Z,19.70
2017-09-03T13:10:04.490Z,19.80
2017-09-03T13:12:32.755Z,19.90
2017-09-03T13:15:00.999Z,20.00
2017-09-03T13:17:29.404Z,20.00
2017-09-03T13:19:57.635Z,19.80
2017-09-03T13:22:26.213Z,20.00
2017-09-03T13:24:54.483Z,20.00
2017-09-03T13:27:22.735Z,20.10
2017-09-03T13:29:51.036Z,19.90
2017-09-03T13:32:19.264Z,19.70
2017-09-03T13:34:48.326Z,19.60
2017-09-03T13:37:16.561Z,19.60
2017-09-03T13:39:44.819Z,19.70
2017-09-03T13:42:13.797Z,19.80
2017-09-03T13:44:42.049Z,20.00
2017-09-03T13:47:10.281Z,20.10
2017-09-03T13:49:38.559Z,20.20
2017-09-03T13:52:06.808Z,20.40
2017-09-03T13:54:35.056Z,20.50
2017-09-03T13:57:03.314Z,20.40
2017-09-03T13:59:31.551Z,20.30
2017-09-03T14:01:59.868Z,20.50
2017-09-03T14:04:28.134Z,20.50
2017-09-03T14:06:56.374Z,20.40
2017-09-03T14:09:24.629Z,20.30
2017-09-03T14:11:52.877Z,20.40
2017-09-03T14:14:21.117Z,20.50
2017-09-03T14:16:49.456Z,20.40
2017-09-03T14:19:17.687Z,20.40
2017-09-03T14:21:46.008Z,20.70
2017-09-03T14:24:14.597Z,20.80
2017-09-03T14:26:42.819Z,21.00
2017-09-03T14:29:11.084Z,21.00
2017-09-03T14:31:39.330Z,21.10
2017-09-03T14:34:08.380Z,21.10
2017-09-03T14:36:37.573Z,21.10
2017-09-03T14:39:05.815Z,21.10
2017-09-03T14:41:34.186Z,20.60
2017-09-03T14:44:03.385Z,20.30
2017-09-03T14:46:31.663Z,20.20
2017-09-03T14:48:59.999Z,20.40
2017-09-03T14:51:28.301Z,20.50
2017-09-03T14:53:57.527Z,20.50
2017-09-03T14:56:25.776Z,20.50
2017-09-03T14:58:54.055Z,20.50
2017-09-03T15:01:22.338Z,20.40
2017-09-03T15:03:50.610Z,20.50
2017-09-03T15:06:18.905Z,20.50
2017-09-03T15:08:47.130Z,20.50
2017-09-03T15:11:15.380Z,20.40
2017-09-03T15:13:43.620Z,20.30
2017-09-03T15:16:11.919Z,20.30
2017-09-03T15:18:40.182Z,20.10
2017-09-03T15:21:08.424Z,20.00
2017-09-03T15:23:36.722Z,20.00
2017-09-03T15:26:04.994Z,19.80
2017-09-03T15:28:33.256Z,19.50
2017-09-03T15:31:01.523Z,19.30
2017-09-03T15:33:29.758Z,19.10
2017-09-03T15:35:58.121Z,19.00
2017-09-03T15:38:26.348Z,19.00
2017-09-03T15:40:54.612Z,19.00
2017-09-03T15:43:22.889Z,18.90
2017-09-03T15:45:51.157Z,18.80
2017-09-03T15:48:19.432Z,18.70
2017-09-03T15:50:47.732Z,18.60
2017-09-03T15:53:16.032Z,18.50
2017-09-03T15:55:44.313Z,18.50
2017-09-03T15:58:12.553Z,18.50
2017-09-03T16:00:40.845Z,18.50
2017-09-03T16:03:09.397Z,18.30
2017-09-03T16:05:37.646Z,18.30
2017-09-03T16:08:06.011Z,18.30
2017-09-03T16:10:34.293Z,18.40
2017-09-03T16:13:03.487Z,18.40
2017-09-03T16:15:31.721Z,18.20
2017-09-03T16:17:59.974Z,18.30
2017-09-03T16:20:28.349Z,18.30
2017-09-03T16:22:56.650Z,18.20
2017-09-03T16:25:24.915Z,18.30
2017-09-03T16:27:53.179Z,18.30
2017-09-03T16:30:22.271Z,18.30
2017-09-03T16:32:51.451Z,18.30
2017-09-03T16:35:19.727Z,18.30
2017-09-03T16:37:48.023Z,18.20
2017-09-03T16:40:16.268Z,18.20
2017-09-03T16:42:44.736Z,18.10
2017-09-03T16:45:13.032Z,18.00
2017-09-03T16:47:41.292Z,18.00
2017-09-03T16:50:09.575Z,17.70
2017-09-03T16:52:37.905Z,17.70
2017-09-03T16:55:06.301Z,17.60
2017-09-03T16:57:34.572Z,17.60
2017-09-03T17:00:02.885Z,17.60
2017-09-03T17:02:31.191Z,17.50
2017-09-03T17:04:59.590Z,17.50
2017-09-03T17:07:27.917Z,17.40
2017-09-03T17:09:56.341Z,17.50
2017-09-03T17:12:24.594Z,17.40
2017-09-03T17:14:52.923Z,17.30
2017-09-03T17:17:21.453Z,17.30
2017-09-03T17:19:50.562Z,17.30
2017-09-03T17:22:18.882Z,17.30
2017-09-03T17:24:47.191Z,17.40
2017-09-03T17:27:15.459Z,17.30
2017-09-03T17:29:43.753Z,17.20
2017-09-03T17:32:12.381Z,17.20
2017-09-03T17:37:58.174Z,17.20
2017-09-03T17:40:27.103Z,17.20
2017-09-03T17:43:06.975Z,17.10
2017-09-03T17:45:36.240Z,17.10
2017-09-03T17:48:04.515Z,17.00
2017-09-03T17:50:32.776Z,16.90
2017-09-03T17:53:01.136Z,16.90
2017-09-03T17:55:29.376Z,16.80
2017-09-03T17:57:57.664Z,16.80
2017-09-03T18:00:25.903Z,16.70
2017-09-03T18:02:56.918Z,16.60
2017-09-03T18:05:25.196Z,16.60
2017-09-03T18:07:53.449Z,16.60
2017-09-03T18:10:21.721Z,16.50
2017-09-03T18:12:50.070Z,16.50
2017-09-03T18:15:18.327Z,16.40
2017-09-03T18:17:46.587Z,16.30
2017-09-03T18:20:14.841Z,16.30
2017-09-03T18:22:43.629Z,16.20
2017-09-03T18:25:12.776Z,16.10
2017-09-03T18:27:41.046Z,16.10
2017-09-03T18:30:09.386Z,16.10
2017-09-03T18:32:37.934Z,16.00
2017-09-03T18:35:06.346Z,16.00
2017-09-03T18:37:37.508Z,16.00
2017-09-03T18:40:08.448Z,16.00
2017-09-03T18:45:43.895Z,15.80
2017-09-03T18:48:12.441Z,15.80
2017-09-03T18:50:41.618Z,15.70
2017-09-03T18:53:22.188Z,15.50
2017-09-03T18:55:50.528Z,15.50
2017-09-03T18:58:22.625Z,15.40
2017-09-03T19:00:51.121Z,15.40
2017-09-03T19:03:22.081Z,15.40
2017-09-03T19:05:52.730Z,15.20
2017-09-03T19:08:21.761Z,15.20
2017-09-03T19:10:51.875Z,15.10
2017-09-03T19:13:20.676Z,15.10
2017-09-03T19:15:54.111Z,15.10
2017-09-03T19:18:23.407Z,15.10
2017-09-03T19:20:52.199Z,15.10
2017-09-03T19:23:20.535Z,15.00
2017-09-03T19:25:49.149Z,15.00
2017-09-03T19:28:17.853Z,15.00
2017-09-03T19:30:47.532Z,15.00
2017-09-03T19:33:16.177Z,14.90
2017-09-03T19:35:44.509Z,14.90
2017-09-03T19:38:15.663Z,15.00
2017-09-03T19:40:44.190Z,14.90
2017-09-03T19:43:12.502Z,14.90
2017-09-03T19:45:40.965Z,14.80
2017-09-03T19:48:09.760Z,14.80
2017-09-03T19:50:38.047Z,14.70
2017-09-03T19:53:06.398Z,14.60
2017-09-03T19:55:35.401Z,14.60
2017-09-03T19:58:03.687Z,14.50
2017-09-03T20:00:32.015Z,14.40
2017-09-03T20:03:00.377Z,14.30
2017-09-03T20:05:28.730Z,14.30
2017-09-03T20:07:57.109Z,14.10
2017-09-03T20:10:25.494Z,14.00
2017-09-03T20:12:53.838Z,14.00
2017-09-03T20:15:22.138Z,13.80
2017-09-03T20:17:50.416Z,13.60
2017-09-03T20:20:18.672Z,13.60
2017-09-03T20:22:46.919Z,13.50
2017-09-03T20:25:15.220Z,13.60
2017-09-03T20:27:43.477Z,13.60
2017-09-03T20:30:11.766Z,13.60
2017-09-03T20:32:40.055Z,13.50
2017-09-03T20:35:08.351Z,13.50
2017-09-03T20:37:36.621Z,13.40
2017-09-03T20:40:04.881Z,13.30
2017-09-03T20:42:33.174Z,13.20
2017-09-03T20:45:01.422Z,13.10
2017-09-03T20:47:29.715Z,12.90
2017-09-03T20:49:57.993Z,12.90
2017-09-03T20:52:26.239Z,12.80
2017-09-03T20:54:54.502Z,12.70
2017-09-03T20:57:22.778Z,12.80
2017-09-03T20:59:51.036Z,12.80
2017-09-03T21:02:19.351Z,12.80
2017-09-03T21:04:47.633Z,12.80
2017-09-03T21:07:15.994Z,12.80
2017-09-03T21:09:44.236Z,12.80
2017-09-03T21:12:12.510Z,12.90
2017-09-03T21:14:40.755Z,12.90
2017-09-03T21:17:09.299Z,12.90
2017-09-03T21:19:37.524Z,12.90
2017-09-03T21:22:05.803Z,12.80
2017-09-03T21:24:34.049Z,12.80
2017-09-03T21:27:02.337Z,12.80
2017-09-03T21:29:30.627Z,12.80
2017-09-03T21:31:59.632Z,12.70
2017-09-03T21:34:27.908Z,12.70
2017-09-03T21:36:56.272Z,12.70
2017-09-03T21:39:24.534Z,12.70
2017-09-03T21:41:52.790Z,12.50
2017-09-03T21:44:21.073Z,12.50
2017-09-03T21:46:49.338Z,12.50
2017-09-03T21:49:17.619Z,12.50
2017-09-03T21:51:45.882Z,12.50
2017-09-03T21:54:14.130Z,12.50
2017-09-03T21:56:42.397Z,12.50
2017-09-03T21:59:11.101Z,12.50
2017-09-03T22:01:39.307Z,12.50
2017-09-03T22:04:07.600Z,12.50
2017-09-03T22:06:35.826Z,12.30
2017-09-03T22:09:04.085Z,12.40
2017-09-03T22:11:32.354Z,12.40
2017-09-03T22:14:00.623Z,12.40
2017-09-03T22:16:28.879Z,12.40
2017-09-03T22:18:57.146Z,12.30
2017-09-03T22:21:25.395Z,12.30
2017-09-03T22:23:53.637Z,12.30
2017-09-03T22:26:21.884Z,12.20
2017-09-03T22:28:50.106Z,12.20
2017-09-03T22:31:18.372Z,12.20
2017-09-03T22:33:46.608Z,12.20
2017-09-03T22:36:14.850Z,12.10
2017-09-03T22:38:43.097Z,12.10
2017-09-03T22:41:11.326Z,12.10
2017-09-03T22:43:39.598Z,12.10
2017-09-03T22:46:07.834Z,12.10
2017-09-03T22:48:36.869Z,12.00
2017-09-03T22:51:05.126Z,12.00
2017-09-03T22:53:33.434Z,12.00
2017-09-03T22:56:01.658Z,12.10
2017-09-03T22:58:29.976Z,12.00
2017-09-03T23:00:58.254Z,12.00
2017-09-03T23:03:26.521Z,12.00
2017-09-03T23:05:54.813Z,11.90
2017-09-03T23:08:23.094Z,11.90
2017-09-03T23:10:51.349Z,11.90
2017-09-03T23:13:19.599Z,11.90
2017-09-03T23:15:47.907Z,11.90
2017-09-03T23:18:16.142Z,11.90
2017-09-03T23:20:44.394Z,11.90
2017-09-03T23:23:12.651Z,11.90
2017-09-03T23:25:40.902Z,11.90
2017-09-03T23:28:09.153Z,11.80
2017-09-03T23:30:37.385Z,11.80
2017-09-03T23:33:05.647Z,11.80
2017-09-03T23:35:33.879Z,11.80
2017-09-03T23:38:02.148Z,11.80
2017-09-03T23:40:30.378Z,11.90
2017-09-03T23:42:58.611Z,11.80
2017-09-03T23:45:26.991Z,11.80
2017-09-03T23:47:55.215Z,11.70
2017-09-03T23:50:23.469Z,11.70
2017-09-03T23:52:51.730Z,11.70
2017-09-03T23:55:19.977Z,11.70
2017-09-03T23:57:48.220Z,11.70
